createdAt,value
2022-11-17T00:00:52.570Z,95.44
2022-11-17T00:01:52.574Z,95.54
2022-11-17T00:02:52.642Z,95.64
2022-11-17T00:03:52.510Z,95.54
2022-11-17T00:04:52.511Z,95.64
2022-11-17T00:05:52.538Z,95.64
2022-11-17T00:06:52.561Z,95.75
2022-11-17T00:07:52.482Z,95.85
2022-11-17T00:08:52.467Z,95.85
2022-11-17T00:09:52.448Z,96.00
2022-11-17T00:10:52.467Z,96.00
2022-11-17T00:11:52.447Z,96.00
2022-11-17T00:12:52.422Z,96.00
2022-11-17T00:13:52.459Z,96.10
2022-11-17T00:14:52.400Z,96.10
2022-11-17T00:15:52.386Z,96.20
2022-11-17T00:16:52.382Z,96.20
2022-11-17T00:17:52.363Z,96.20
2022-11-17T00:18:52.492Z,96.20
2022-11-17T00:19:52.408Z,96.20
2022-11-17T00:20:52.332Z,96.30
2022-11-17T00:21:52.314Z,96.30
2022-11-17T00:22:52.360Z,96.30
2022-11-17T00:23:52.344Z,96.30
2022-11-17T00:24:52.306Z,96.26
2022-11-17T00:25:52.272Z,96.05
2022-11-17T00:26:52.258Z,95.95
2022-11-17T00:27:52.258Z,95.85
2022-11-17T00:28:52.253Z,95.85
2022-11-17T00:29:52.222Z,95.89
2022-11-17T00:30:52.244Z,95.89
2022-11-17T00:31:52.232Z,95.59
2022-11-17T00:32:52.191Z,95.48
2022-11-17T00:33:52.207Z,95.48
2022-11-17T00:34:52.184Z,95.48
2022-11-17T00:35:52.185Z,95.59
2022-11-17T00:36:52.149Z,95.59
2022-11-17T00:37:53.101Z,95.48
2022-11-17T00:38:52.179Z,95.38
2022-11-17T00:39:55.263Z,95.38
2022-11-17T00:40:53.111Z,95.38
2022-11-17T00:41:52.092Z,95.38
2022-11-17T00:42:52.076Z,95.38
2022-11-17T00:43:52.078Z,95.34
2022-11-17T00:44:52.090Z,95.28
2022-11-17T00:45:52.990Z,95.28
2022-11-17T00:46:52.032Z,95.48
2022-11-17T00:47:52.029Z,95.59
2022-11-17T00:48:52.064Z,95.59
2022-11-17T00:49:52.029Z,95.59
2022-11-17T00:50:51.994Z,95.69
2022-11-17T00:51:51.981Z,95.59
2022-11-17T00:52:52.000Z,95.69
2022-11-17T00:53:52.003Z,95.69
2022-11-17T00:54:51.953Z,95.79
2022-11-17T00:55:51.955Z,95.79
2022-11-17T00:56:51.935Z,95.89
2022-11-17T00:57:51.939Z,96.00
2022-11-17T00:58:51.893Z,95.89
2022-11-17T00:59:51.920Z,95.89
2022-11-17T01:00:51.886Z,95.89
2022-11-17T01:01:51.883Z,96.10
2022-11-17T01:02:51.896Z,96.20
2022-11-17T01:03:51.852Z,96.20
2022-11-17T01:04:51.825Z,96.30
2022-11-17T01:05:51.822Z,96.30
2022-11-17T01:06:51.887Z,96.30
2022-11-17T01:07:51.866Z,96.20
2022-11-17T01:08:51.794Z,96.30
2022-11-17T01:09:51.779Z,96.30
2022-11-17T01:10:51.806Z,96.41
2022-11-17T01:11:51.747Z,96.41
2022-11-17T01:12:51.746Z,96.10
2022-11-17T01:13:51.755Z,96.25
2022-11-17T01:14:51.722Z,96.45
2022-11-17T01:15:51.703Z,96.55
2022-11-17T01:16:51.747Z,96.45
2022-11-17T01:17:51.698Z,96.34
2022-11-17T01:18:51.691Z,96.45
2022-11-17T01:19:51.663Z,96.55
2022-11-17T01:20:51.658Z,96.71
2022-11-17T01:21:51.648Z,96.61
2022-11-17T01:22:51.670Z,96.41
2022-11-17T01:23:51.649Z,96.51
2022-11-17T01:24:51.622Z,96.51
2022-11-17T01:25:51.595Z,96.51
2022-11-17T01:26:51.606Z,96.41
2022-11-17T01:27:51.571Z,96.41
2022-11-17T01:28:51.571Z,96.30
2022-11-17T01:29:51.581Z,96.30
2022-11-17T01:30:51.541Z,96.30
2022-11-17T01:31:51.534Z,96.30
2022-11-17T01:32:51.511Z,96.41
2022-11-17T01:33:51.513Z,96.51
2022-11-17T01:34:51.532Z,96.41
2022-11-17T01:35:51.490Z,96.30
2022-11-17T01:36:51.483Z,96.30
2022-11-17T01:37:51.462Z,96.41
2022-11-17T01:38:51.458Z,96.41
2022-11-17T01:39:51.434Z,96.41
2022-11-17T01:40:51.504Z,96.41
2022-11-17T01:41:51.424Z,96.51
2022-11-17T01:42:51.405Z,96.61
2022-11-17T01:43:51.423Z,96.81
2022-11-17T01:44:51.384Z,96.81
2022-11-17T01:45:51.378Z,96.61
2022-11-17T01:46:51.388Z,96.61
2022-11-17T01:47:51.385Z,96.61
2022-11-17T01:48:51.343Z,96.81
2022-11-17T01:49:51.348Z,96.92
2022-11-17T01:50:51.318Z,97.16
2022-11-17T01:51:51.318Z,97.02
2022-11-17T01:52:51.329Z,97.27
2022-11-17T01:53:51.301Z,97.27
2022-11-17T01:54:51.289Z,97.37
2022-11-17T01:55:51.270Z,97.27
2022-11-17T01:56:51.263Z,97.37
2022-11-17T01:57:51.270Z,97.37
2022-11-17T01:58:51.229Z,97.27
2022-11-17T01:59:51.266Z,97.37
2022-11-17T02:00:51.198Z,97.27
2022-11-17T02:01:51.268Z,97.27
2022-11-17T02:02:51.210Z,97.37
2022-11-17T02:03:51.162Z,97.47
2022-11-17T02:04:51.148Z,97.37
2022-11-17T02:05:51.151Z,97.27
2022-11-17T02:06:51.170Z,97.16
2022-11-17T02:07:51.123Z,97.06
2022-11-17T02:08:51.131Z,97.27
2022-11-17T02:09:51.090Z,97.16
2022-11-17T02:10:51.966Z,97.06
2022-11-17T02:11:51.090Z,97.06
2022-11-17T02:12:51.051Z,97.06
2022-11-17T02:13:51.102Z,96.96
2022-11-17T02:14:51.061Z,96.96
2022-11-17T02:15:51.035Z,97.06
2022-11-17T02:16:51.348Z,97.16
2022-11-17T02:17:51.056Z,97.27
2022-11-17T02:18:51.020Z,97.16
2022-11-17T02:19:51.001Z,97.06
2022-11-17T02:20:51.018Z,97.16
2022-11-17T02:21:50.962Z,97.27
2022-11-17T02:22:50.965Z,97.27
2022-11-17T02:23:50.939Z,97.37
2022-11-17T02:24:50.925Z,97.47
2022-11-17T02:25:50.934Z,97.27
2022-11-17T02:26:50.895Z,97.27
2022-11-17T02:27:51.807Z,97.06
2022-11-17T02:28:50.887Z,97.06
2022-11-17T02:29:50.876Z,96.86
2022-11-17T02:30:50.857Z,96.75
2022-11-17T02:31:50.847Z,96.75
2022-11-17T02:32:50.856Z,96.75
2022-11-17T02:33:50.840Z,96.86
2022-11-17T02:34:50.816Z,96.86
2022-11-17T02:35:50.807Z,96.86
2022-11-17T02:36:50.800Z,96.75
2022-11-17T02:37:50.807Z,96.66
2022-11-17T02:38:50.803Z,96.75
2022-11-17T02:39:50.756Z,96.75
2022-11-17T02:40:50.758Z,96.75
2022-11-17T02:41:50.769Z,96.66
2022-11-17T02:42:50.709Z,96.55
2022-11-17T02:43:50.713Z,96.45
2022-11-17T02:44:50.699Z,96.34
2022-11-17T02:45:50.691Z,96.45
2022-11-17T02:46:50.678Z,96.45
2022-11-17T02:47:50.688Z,96.45
2022-11-17T02:48:50.659Z,96.45
2022-11-17T02:49:50.676Z,96.55
2022-11-17T02:50:50.652Z,96.34
2022-11-17T02:51:50.643Z,96.34
2022-11-17T02:52:50.616Z,96.25
2022-11-17T02:53:50.609Z,96.34
2022-11-17T02:54:50.581Z,96.45
2022-11-17T02:55:50.584Z,96.45
2022-11-17T02:56:50.622Z,96.45
2022-11-17T02:57:50.551Z,96.66
2022-11-17T02:58:50.544Z,96.86
2022-11-17T02:59:50.538Z,96.86
2022-11-17T03:00:50.519Z,96.96
2022-11-17T03:01:50.619Z,96.96
2022-11-17T03:02:50.525Z,96.86
2022-11-17T03:03:50.495Z,96.96
2022-11-17T03:04:50.481Z,96.96
2022-11-17T03:05:50.473Z,96.96
2022-11-17T03:06:50.487Z,97.06
2022-11-17T03:07:50.464Z,97.16
2022-11-17T03:08:50.422Z,97.27
2022-11-17T03:09:50.494Z,97.16
2022-11-17T03:10:50.432Z,97.27
2022-11-17T03:11:50.395Z,97.27
2022-11-17T03:12:50.424Z,97.37
2022-11-17T03:13:50.365Z,97.37
2022-11-17T03:14:50.365Z,97.47
2022-11-17T03:15:50.363Z,97.57
2022-11-17T03:16:50.336Z,97.57
2022-11-17T03:17:50.349Z,97.67
2022-11-17T03:18:50.313Z,97.78
2022-11-17T03:19:50.321Z,97.78
2022-11-17T03:20:50.299Z,97.88
2022-11-17T03:21:50.288Z,97.98
2022-11-17T03:22:50.267Z,97.98
2022-11-17T03:23:50.271Z,97.98
2022-11-17T03:24:50.268Z,97.98
2022-11-17T03:25:50.238Z,97.98
2022-11-17T03:26:50.219Z,98.08
2022-11-17T03:27:50.225Z,98.08
2022-11-17T03:28:50.224Z,97.98
2022-11-17T03:29:50.228Z,97.98
2022-11-17T03:30:50.178Z,97.98
2022-11-17T03:31:50.169Z,97.98
2022-11-17T03:32:50.172Z,98.08
2022-11-17T03:33:50.160Z,98.08
2022-11-17T03:34:50.130Z,98.08
2022-11-17T03:35:50.968Z,98.19
2022-11-17T03:36:50.113Z,98.19
2022-11-17T03:37:50.107Z,98.29
2022-11-17T03:38:50.089Z,98.29
2022-11-17T03:39:50.089Z,98.19
2022-11-17T03:40:50.104Z,98.29
2022-11-17T03:41:50.056Z,98.29
2022-11-17T03:42:50.051Z,98.39
2022-11-17T03:43:50.040Z,98.29
2022-11-17T03:44:50.031Z,98.29
2022-11-17T03:45:50.012Z,98.19
2022-11-17T03:46:50.012Z,98.19
2022-11-17T03:47:50.012Z,98.19
2022-11-17T03:48:49.976Z,97.98
2022-11-17T03:49:49.983Z,97.98
2022-11-17T03:50:49.973Z,97.98
2022-11-17T03:51:49.955Z,97.98
2022-11-17T03:52:49.945Z,98.08
2022-11-17T03:53:49.944Z,98.08
2022-11-17T03:54:49.928Z,97.88
2022-11-17T03:55:50.879Z,97.78
2022-11-17T03:56:49.925Z,97.67
2022-11-17T03:57:49.897Z,97.41
2022-11-17T03:58:49.879Z,97.21
2022-11-17T03:59:50.923Z,97.11
2022-11-17T04:00:49.841Z,97.11
2022-11-17T04:01:49.958Z,97.00
2022-11-17T04:02:49.827Z,97.00
2022-11-17T04:03:49.927Z,97.00
2022-11-17T04:04:49.800Z,96.91
2022-11-17T04:05:49.791Z,96.80
2022-11-17T04:06:49.864Z,96.80
2022-11-17T04:07:49.805Z,96.80
2022-11-17T04:08:49.748Z,96.70
2022-11-17T04:09:49.746Z,96.70
2022-11-17T04:10:49.759Z,96.80
2022-11-17T04:11:49.720Z,96.70
2022-11-17T04:12:49.708Z,96.59
2022-11-17T04:13:49.774Z,96.59
2022-11-17T04:14:49.688Z,96.59
2022-11-17T04:15:49.678Z,96.49
2022-11-17T04:16:49.660Z,96.49
2022-11-17T04:17:49.676Z,96.49
2022-11-17T04:18:51.431Z,96.59
2022-11-17T04:19:49.681Z,96.59
2022-11-17T04:20:49.609Z,96.70
2022-11-17T04:21:49.615Z,96.70
2022-11-17T04:22:49.608Z,96.59
2022-11-17T04:23:49.598Z,96.49
2022-11-17T04:24:49.570Z,96.39
2022-11-17T04:25:49.604Z,96.39
2022-11-17T04:26:49.550Z,96.39
2022-11-17T04:27:49.543Z,96.39
2022-11-17T04:28:49.529Z,96.49
2022-11-17T04:29:49.569Z,96.39
2022-11-17T04:30:49.515Z,96.29
2022-11-17T04:31:49.492Z,96.39
2022-11-17T04:32:49.487Z,96.29
2022-11-17T04:33:49.476Z,96.19
2022-11-17T04:34:49.473Z,96.29
2022-11-17T04:35:49.484Z,96.19
2022-11-17T04:36:49.439Z,96.08
2022-11-17T04:37:49.434Z,96.08
2022-11-17T04:38:49.429Z,95.98
2022-11-17T04:39:49.404Z,96.08
2022-11-17T04:40:49.418Z,96.08
2022-11-17T04:41:49.391Z,96.08
2022-11-17T04:42:49.396Z,96.08
2022-11-17T04:43:49.372Z,95.88
2022-11-17T04:44:49.349Z,95.78
2022-11-17T04:45:49.350Z,95.78
2022-11-17T04:46:49.361Z,95.88
2022-11-17T04:47:49.324Z,95.88
2022-11-17T04:48:49.315Z,95.88
2022-11-17T04:49:49.324Z,95.98
2022-11-17T04:50:49.285Z,95.98
2022-11-17T04:51:49.278Z,95.98
2022-11-17T04:52:49.268Z,96.03
2022-11-17T04:53:49.250Z,95.92
2022-11-17T04:54:49.258Z,96.13
2022-11-17T04:55:49.224Z,96.23
2022-11-17T04:56:49.210Z,96.29
2022-11-17T04:57:49.208Z,96.44
2022-11-17T04:58:49.196Z,96.29
2022-11-17T04:59:49.210Z,96.23
2022-11-17T05:00:49.170Z,96.13
2022-11-17T05:01:49.245Z,96.13
2022-11-17T05:02:49.150Z,95.98
2022-11-17T05:03:49.146Z,95.98
2022-11-17T05:04:49.191Z,95.88
2022-11-17T05:05:49.152Z,95.98
2022-11-17T05:06:49.111Z,95.98
2022-11-17T05:07:49.268Z,95.88
2022-11-17T05:08:49.089Z,95.67
2022-11-17T05:09:49.204Z,95.57
2022-11-17T05:10:49.243Z,95.67
2022-11-17T05:11:49.085Z,95.57
2022-11-17T05:12:49.205Z,95.47
2022-11-17T05:13:49.044Z,95.37
2022-11-17T05:14:49.104Z,95.37
2022-11-17T05:15:49.034Z,95.26
2022-11-17T05:16:49.005Z,95.06
2022-11-17T05:17:49.045Z,95.02
2022-11-17T05:18:48.994Z,95.02
2022-11-17T05:19:49.197Z,95.22
2022-11-17T05:20:48.984Z,95.12
2022-11-17T05:21:49.976Z,95.43
2022-11-17T05:22:48.956Z,95.53
2022-11-17T05:23:48.936Z,95.53
2022-11-17T05:24:48.909Z,95.63
2022-11-17T05:25:48.917Z,95.94
2022-11-17T05:26:50.377Z,96.04
2022-11-17T05:27:48.909Z,96.04
2022-11-17T05:28:48.868Z,96.14
2022-11-17T05:29:48.882Z,96.34
2022-11-17T05:30:48.861Z,96.45
2022-11-17T05:31:49.000Z,96.66
2022-11-17T05:32:48.836Z,96.86
2022-11-17T05:33:49.045Z,96.96
2022-11-17T05:34:48.800Z,97.21
2022-11-17T05:35:48.852Z,97.21
2022-11-17T05:36:48.942Z,97.21
2022-11-17T05:37:49.031Z,97.41
2022-11-17T05:38:48.768Z,97.62
2022-11-17T05:39:50.206Z,97.62
2022-11-17T05:40:49.023Z,97.72
2022-11-17T05:41:48.763Z,97.72
2022-11-17T05:42:51.805Z,97.82
2022-11-17T05:43:49.711Z,97.92
2022-11-17T05:44:49.009Z,98.03
2022-11-17T05:45:48.686Z,98.03
2022-11-17T05:46:49.128Z,98.13
2022-11-17T05:47:48.872Z,98.13
2022-11-17T05:48:48.657Z,98.13
2022-11-17T05:49:48.644Z,98.24
2022-11-17T05:50:48.682Z,98.24
2022-11-17T05:51:52.484Z,98.24
2022-11-17T05:52:48.629Z,98.24
2022-11-17T05:53:48.618Z,98.24
2022-11-17T05:54:48.589Z,98.24
2022-11-17T05:55:48.574Z,98.24
2022-11-17T05:56:48.605Z,98.24
2022-11-17T05:57:48.571Z,98.24
2022-11-17T05:58:48.536Z,98.33
2022-11-17T05:59:48.535Z,98.33
2022-11-17T06:00:48.512Z,98.33
2022-11-17T06:01:48.584Z,98.33
2022-11-17T06:02:48.520Z,98.33
2022-11-17T06:03:48.521Z,98.33
2022-11-17T06:04:49.912Z,98.24
2022-11-17T06:05:48.716Z,98.24
2022-11-17T06:06:48.464Z,98.33
2022-11-17T06:07:49.267Z,98.33
2022-11-17T06:08:48.451Z,98.33
2022-11-17T06:09:48.462Z,98.44
2022-11-17T06:10:48.406Z,98.44
2022-11-17T06:11:48.419Z,98.44
2022-11-17T06:12:48.403Z,98.44
2022-11-17T06:13:48.380Z,98.44
2022-11-17T06:14:48.358Z,98.33
2022-11-17T06:15:48.355Z,98.33
2022-11-17T06:16:48.335Z,98.33
2022-11-17T06:17:48.349Z,98.44
2022-11-17T06:18:49.773Z,98.54
2022-11-17T06:19:49.240Z,98.54
2022-11-17T06:20:49.732Z,98.54
2022-11-17T06:22:10.446Z,98.54
2022-11-17T06:22:49.572Z,98.54
2022-11-17T06:23:48.437Z,98.54
2022-11-17T06:24:48.312Z,98.44
2022-11-17T06:25:48.476Z,98.44
2022-11-17T06:26:48.243Z,98.33
2022-11-17T06:27:49.200Z,98.33
2022-11-17T06:28:48.245Z,98.33
2022-11-17T06:29:49.645Z,98.33
2022-11-17T06:30:48.177Z,98.24
2022-11-17T06:31:48.589Z,98.19
2022-11-17T06:32:48.556Z,98.08
2022-11-17T06:33:48.145Z,98.03
2022-11-17T06:34:54.919Z,97.98
2022-11-17T06:35:49.134Z,97.98
2022-11-17T06:36:48.199Z,97.88
2022-11-17T06:37:48.598Z,97.78
2022-11-17T06:38:48.096Z,97.67
2022-11-17T06:39:48.125Z,97.47
2022-11-17T06:40:48.110Z,97.57
2022-11-17T06:41:49.513Z,97.57
2022-11-17T06:42:48.049Z,97.57
2022-11-17T06:43:48.908Z,97.57
2022-11-17T06:44:48.163Z,97.57
2022-11-17T06:45:48.028Z,97.57
2022-11-17T06:46:49.346Z,97.67
2022-11-17T06:47:48.887Z,97.78
2022-11-17T06:48:48.819Z,97.78
2022-11-17T06:49:47.976Z,97.57
2022-11-17T06:50:48.082Z,97.57
2022-11-17T06:51:47.952Z,97.67
2022-11-17T06:52:49.453Z,97.67
2022-11-17T06:53:48.095Z,97.67
2022-11-17T06:54:47.970Z,97.78
2022-11-17T06:55:47.932Z,98.08
2022-11-17T06:56:48.067Z,97.88
2022-11-17T06:57:53.274Z,97.83
2022-11-17T06:58:49.078Z,97.74
2022-11-17T06:59:47.900Z,97.33
2022-11-17T07:00:49.978Z,96.92
2022-11-17T07:01:47.921Z,96.66
2022-11-17T07:02:47.859Z,96.55
2022-11-17T07:03:47.898Z,96.55
2022-11-17T07:04:47.861Z,96.55
2022-11-17T07:05:47.917Z,96.55
2022-11-17T07:06:47.875Z,96.55
2022-11-17T07:07:47.860Z,96.55
2022-11-17T07:08:47.793Z,96.45
2022-11-17T07:09:48.742Z,96.55
2022-11-17T07:10:49.397Z,96.45
2022-11-17T07:11:47.812Z,96.34
2022-11-17T07:12:47.884Z,96.25
2022-11-17T07:13:49.184Z,96.14
2022-11-17T07:14:47.722Z,96.04
2022-11-17T07:15:47.695Z,96.14
2022-11-17T07:16:47.713Z,96.14
2022-11-17T07:17:47.704Z,96.14
2022-11-17T07:18:47.685Z,96.20
2022-11-17T07:19:47.659Z,96.20
2022-11-17T07:20:47.647Z,96.20
2022-11-17T07:21:47.650Z,96.20
2022-11-17T07:22:47.966Z,96.20
2022-11-17T07:23:48.676Z,96.30
2022-11-17T07:24:47.598Z,96.30
2022-11-17T07:25:47.596Z,96.30
2022-11-17T07:26:47.578Z,96.10
2022-11-17T07:27:47.600Z,96.00
2022-11-17T07:28:47.985Z,96.00
2022-11-17T07:29:47.939Z,96.10
2022-11-17T07:30:47.531Z,96.20
2022-11-17T07:31:47.563Z,96.00
2022-11-17T07:32:51.915Z,96.00
2022-11-17T07:33:48.530Z,95.79
2022-11-17T07:34:47.501Z,95.89
2022-11-17T07:35:47.534Z,95.79
2022-11-17T07:36:47.467Z,95.69
2022-11-17T07:37:47.470Z,95.79
2022-11-17T07:38:48.388Z,95.59
2022-11-17T07:39:47.631Z,95.38
2022-11-17T07:40:47.683Z,95.18
2022-11-17T07:41:47.760Z,95.13
2022-11-17T07:42:48.378Z,95.13
2022-11-17T07:43:47.380Z,94.73
2022-11-17T07:44:48.350Z,94.62
2022-11-17T07:45:47.378Z,94.62
2022-11-17T07:46:48.204Z,94.93
2022-11-17T07:47:47.352Z,94.82
2022-11-17T07:48:47.330Z,94.82
2022-11-17T07:49:48.757Z,94.62
2022-11-17T07:50:47.323Z,94.52
2022-11-17T07:51:47.678Z,94.11
2022-11-17T07:52:47.311Z,94.11
2022-11-17T07:53:47.347Z,94.11
2022-11-17T07:54:47.323Z,94.11
2022-11-17T07:55:47.255Z,94.11
2022-11-17T07:56:47.247Z,94.32
2022-11-17T07:57:48.692Z,94.01
2022-11-17T07:58:47.313Z,93.91
2022-11-17T07:59:47.236Z,94.01
2022-11-17T08:00:48.717Z,93.91
2022-11-17T08:01:47.178Z,93.65
2022-11-17T08:02:47.174Z,93.44
2022-11-17T08:03:48.234Z,93.33
2022-11-17T08:04:47.415Z,93.33
2022-11-17T08:05:48.615Z,93.44
2022-11-17T08:06:48.600Z,93.54
2022-11-17T08:07:47.126Z,93.74
2022-11-17T08:08:47.129Z,93.95
2022-11-17T08:09:47.084Z,94.15
2022-11-17T08:10:47.129Z,94.15
2022-11-17T08:11:47.098Z,94.15
2022-11-17T08:12:47.067Z,94.15
2022-11-17T08:13:47.046Z,94.36
2022-11-17T08:14:47.050Z,94.36
2022-11-17T08:15:47.025Z,94.36
2022-11-17T08:16:47.110Z,94.26
2022-11-17T08:17:47.010Z,94.26
2022-11-17T08:18:52.045Z,94.26
2022-11-17T08:19:47.979Z,94.06
2022-11-17T08:20:47.385Z,94.15
2022-11-17T08:21:48.417Z,94.26
2022-11-17T08:22:46.986Z,94.36
2022-11-17T08:23:46.935Z,94.46
2022-11-17T08:24:46.945Z,94.46
2022-11-17T08:25:46.919Z,94.46
2022-11-17T08:26:46.933Z,94.46
2022-11-17T08:27:46.891Z,94.36
2022-11-17T08:28:46.878Z,94.20
2022-11-17T08:29:46.871Z,94.20
2022-11-17T08:30:46.874Z,94.20
2022-11-17T08:31:46.879Z,94.20
2022-11-17T08:32:46.853Z,94.10
2022-11-17T08:33:46.832Z,94.10
2022-11-17T08:34:48.291Z,93.99
2022-11-17T08:35:46.832Z,93.74
2022-11-17T08:36:46.800Z,93.74
2022-11-17T08:37:46.856Z,93.85
2022-11-17T08:38:46.826Z,93.85
2022-11-17T08:39:46.792Z,93.54
2022-11-17T08:40:46.761Z,93.24
2022-11-17T08:41:46.732Z,93.24
2022-11-17T08:42:46.737Z,93.13
2022-11-17T08:43:47.274Z,93.13
2022-11-17T08:44:46.942Z,93.13
2022-11-17T08:45:47.312Z,93.13
2022-11-17T08:46:46.709Z,92.93
2022-11-17T08:47:47.146Z,92.83
2022-11-17T08:48:48.923Z,92.93
2022-11-17T08:49:46.640Z,93.03
2022-11-17T08:50:47.064Z,92.99
2022-11-17T08:51:46.629Z,92.68
2022-11-17T08:52:46.671Z,92.27
2022-11-17T08:53:46.645Z,92.27
2022-11-17T08:54:46.596Z,92.17
2022-11-17T08:55:46.806Z,92.17
2022-11-17T08:56:46.683Z,91.96
2022-11-17T08:57:46.579Z,92.07
2022-11-17T08:58:46.559Z,92.27
2022-11-17T08:59:46.557Z,92.58
2022-11-17T09:00:46.598Z,92.99
2022-11-17T09:01:46.544Z,92.78
2022-11-17T09:02:46.757Z,92.58
2022-11-17T09:03:46.524Z,92.58
2022-11-17T09:04:46.501Z,92.27
2022-11-17T09:05:46.489Z,91.76
2022-11-17T09:06:46.635Z,91.66
2022-11-17T09:07:46.585Z,91.86
2022-11-17T09:08:47.477Z,92.07
2022-11-17T09:09:46.452Z,92.17
2022-11-17T09:10:46.428Z,92.27
2022-11-17T09:11:47.357Z,92.23
2022-11-17T09:12:46.367Z,92.23
2022-11-17T09:13:46.387Z,92.02
2022-11-17T09:14:46.481Z,91.82
2022-11-17T09:15:46.364Z,91.52
2022-11-17T09:16:47.291Z,91.61
2022-11-17T09:17:46.489Z,91.31
2022-11-17T09:18:46.309Z,91.20
2022-11-17T09:19:46.301Z,90.90
2022-11-17T09:20:46.479Z,90.70
2022-11-17T09:21:46.294Z,90.59
2022-11-17T09:22:46.426Z,90.59
2022-11-17T09:23:46.238Z,90.59
2022-11-17T09:24:46.454Z,90.45
2022-11-17T09:25:46.219Z,90.45
2022-11-17T09:26:46.412Z,90.45
2022-11-17T09:27:46.204Z,90.35
2022-11-17T09:28:46.251Z,89.84
2022-11-17T09:29:46.175Z,89.84
2022-11-17T09:30:46.191Z,89.84
2022-11-17T09:31:46.225Z,89.84
2022-11-17T09:32:46.191Z,89.84
2022-11-17T09:33:47.602Z,89.59
2022-11-17T09:34:46.224Z,89.28
2022-11-17T09:35:46.143Z,89.28
2022-11-17T09:36:46.115Z,89.18
2022-11-17T09:37:46.082Z,88.47
2022-11-17T09:38:46.111Z,88.26
2022-11-17T09:39:46.054Z,88.47
2022-11-17T09:40:46.058Z,87.41
2022-11-17T09:41:46.042Z,86.80
2022-11-17T09:42:46.035Z,86.18
2022-11-17T09:43:46.050Z,86.29
2022-11-17T09:44:46.976Z,86.80
2022-11-17T09:45:46.175Z,86.49
2022-11-17T09:46:46.054Z,85.98
2022-11-17T09:47:46.015Z,85.77
2022-11-17T09:48:46.078Z,85.88
2022-11-17T09:49:45.955Z,85.74
2022-11-17T09:50:45.962Z,85.53
2022-11-17T09:51:45.996Z,85.43
2022-11-17T09:52:45.974Z,85.22
2022-11-17T09:53:45.915Z,84.41
2022-11-17T11:13:27.481Z,76.31
2022-11-17T11:14:25.779Z,76.82
2022-11-17T11:15:25.518Z,76.72
2022-11-17T11:16:25.490Z,76.31
2022-11-17T11:17:25.476Z,76.82
2022-11-17T11:18:25.489Z,76.92
2022-11-17T11:19:25.483Z,76.31
2022-11-17T11:20:25.462Z,75.60
2022-11-17T11:21:25.429Z,75.81
2022-11-17T11:22:25.433Z,75.20
2022-11-17T11:23:25.500Z,74.99
2022-11-17T11:24:25.662Z,74.69
2022-11-17T11:25:25.447Z,74.58
2022-11-17T11:26:25.396Z,74.48
2022-11-17T11:27:25.389Z,74.69
2022-11-17T11:28:25.430Z,74.58
2022-11-17T11:29:25.342Z,74.69
2022-11-17T11:30:25.360Z,75.23
2022-11-17T11:31:26.645Z,75.23
2022-11-17T11:32:25.338Z,75.64
2022-11-17T11:33:25.334Z,75.95
2022-11-17T11:34:25.364Z,75.95
2022-11-17T11:35:25.296Z,75.95
2022-11-17T11:36:25.263Z,75.84
2022-11-17T11:37:25.270Z,75.64
2022-11-17T11:38:25.245Z,75.64
2022-11-17T11:39:25.241Z,75.64
2022-11-17T11:40:25.254Z,75.74
2022-11-17T11:41:25.245Z,76.25
2022-11-17T11:42:25.375Z,75.78
2022-11-17T11:43:26.021Z,75.47
2022-11-17T11:44:25.194Z,76.69
2022-11-17T11:45:25.210Z,78.19
2022-11-17T11:46:25.886Z,77.57
2022-11-17T11:47:25.232Z,78.08
2022-11-17T11:48:25.127Z,79.71
2022-11-17T11:49:25.128Z,77.98
2022-11-17T11:50:25.121Z,78.49
2022-11-17T11:51:27.509Z,77.78
2022-11-17T11:52:25.191Z,77.47
2022-11-17T11:53:25.227Z,76.45
2022-11-17T11:54:25.100Z,79.10
2022-11-17T11:55:26.038Z,79.30
2022-11-17T11:56:25.336Z,78.83
2022-11-17T11:57:25.049Z,78.42
2022-11-17T11:58:25.102Z,77.61
2022-11-17T11:59:25.083Z,78.63
2022-11-17T12:00:25.014Z,77.85
2022-11-17T12:01:25.038Z,77.95
2022-11-17T12:02:25.204Z,78.36
2022-11-17T12:03:25.023Z,79.17
2022-11-17T12:04:24.973Z,78.46
2022-11-17T12:05:25.017Z,79.38
2022-11-17T12:06:26.609Z,79.89
2022-11-17T12:07:25.430Z,80.60
2022-11-17T12:08:24.962Z,81.01
2022-11-17T12:09:24.920Z,80.60
2022-11-17T12:10:24.985Z,79.72
2022-11-17T12:11:25.470Z,79.21
2022-11-17T12:12:24.884Z,78.60
2022-11-17T12:13:24.884Z,78.60
2022-11-17T12:14:24.873Z,79.21
2022-11-17T12:15:24.887Z,79.21
2022-11-17T12:16:24.854Z,79.72
2022-11-17T12:17:24.866Z,80.94
2022-11-17T12:18:24.836Z,79.82
2022-11-17T12:19:25.405Z,78.60
2022-11-17T12:20:24.873Z,79.21
2022-11-17T12:21:25.615Z,79.11
2022-11-17T12:22:26.205Z,79.11
2022-11-17T12:23:26.230Z,78.70
2022-11-17T12:24:26.237Z,79.41
2022-11-17T12:25:25.690Z,80.02
2022-11-17T12:26:25.572Z,80.23
2022-11-17T12:27:26.171Z,80.74
2022-11-17T12:28:25.633Z,80.43
2022-11-17T12:29:24.702Z,81.04
2022-11-17T12:30:24.857Z,80.43
2022-11-17T12:31:24.648Z,80.13
2022-11-17T12:32:25.480Z,80.13
2022-11-17T12:33:24.839Z,79.93
2022-11-17T12:34:24.622Z,79.82
2022-11-17T12:35:26.062Z,80.33
2022-11-17T12:36:30.249Z,79.93
2022-11-17T12:37:25.641Z,79.62
2022-11-17T12:38:24.796Z,78.19
2022-11-17T12:39:26.023Z,79.21
2022-11-17T12:40:25.504Z,79.41
2022-11-17T12:41:26.049Z,79.72
2022-11-17T12:42:25.982Z,80.13
2022-11-17T12:43:24.634Z,79.32
2022-11-17T12:44:25.967Z,79.21
2022-11-17T12:45:24.590Z,78.70
2022-11-17T12:46:25.045Z,78.80
2022-11-17T12:47:25.927Z,79.62
2022-11-17T12:48:34.450Z,79.32
2022-11-17T12:49:25.499Z,79.32
2022-11-17T12:50:25.924Z,78.80
2022-11-17T12:51:24.793Z,79.72
2022-11-17T12:52:25.054Z,79.11
2022-11-17T12:53:25.894Z,79.72
2022-11-17T12:54:25.858Z,79.32
2022-11-17T12:55:24.545Z,79.52
2022-11-17T12:56:24.398Z,78.80
2022-11-17T12:57:24.485Z,77.78
2022-11-17T12:58:25.063Z,79.21
2022-11-17T12:59:24.434Z,79.52
2022-11-17T13:00:25.776Z,80.13
2022-11-17T13:01:24.386Z,79.04
2022-11-17T13:02:24.928Z,79.62
2022-11-17T13:03:24.316Z,79.32
2022-11-17T13:04:24.864Z,80.23
2022-11-17T13:05:24.533Z,80.74
2022-11-17T13:06:39.755Z,80.57
2022-11-17T13:07:25.371Z,80.37
2022-11-17T13:08:25.272Z,80.78
2022-11-17T13:09:24.298Z,79.75
2022-11-17T13:10:24.325Z,78.74
2022-11-17T13:11:24.330Z,78.84
2022-11-17T13:12:24.300Z,78.94
2022-11-17T13:13:24.978Z,79.66
2022-11-17T13:14:25.036Z,79.72
2022-11-17T13:15:24.302Z,77.51
2022-11-17T13:16:24.264Z,77.92
2022-11-17T13:17:24.335Z,78.50
2022-11-17T13:18:24.270Z,78.60
2022-11-17T13:19:24.111Z,78.30
2022-11-17T13:20:24.124Z,78.19
2022-11-17T13:21:24.119Z,78.39
2022-11-17T13:22:24.084Z,79.00
2022-11-17T13:23:24.695Z,79.21
2022-11-17T13:24:24.076Z,78.91
2022-11-17T13:25:24.091Z,79.11
2022-11-17T13:26:24.096Z,78.50
2022-11-17T13:27:24.854Z,78.30
2022-11-17T13:28:24.050Z,77.68
2022-11-17T13:29:24.052Z,78.39
2022-11-17T13:30:24.023Z,78.80
2022-11-17T13:31:23.994Z,77.68
2022-11-17T13:32:24.026Z,79.93
2022-11-17T13:33:24.021Z,79.00
2022-11-17T13:34:23.956Z,77.98
2022-11-17T13:35:24.794Z,77.37
2022-11-17T13:36:23.955Z,77.68
2022-11-17T13:37:24.077Z,77.37
2022-11-17T13:38:25.364Z,78.60
2022-11-17T13:39:27.458Z,78.30
2022-11-17T13:40:23.878Z,78.60
2022-11-17T13:41:24.073Z,76.97
2022-11-17T13:42:23.910Z,77.37
2022-11-17T13:43:25.331Z,77.07
2022-11-17T13:44:23.832Z,78.30
2022-11-17T13:45:23.940Z,77.58
2022-11-17T13:46:23.811Z,77.98
2022-11-17T13:47:23.978Z,78.30
2022-11-17T13:48:25.240Z,78.60
2022-11-17T13:49:24.760Z,77.68
2022-11-17T13:50:23.796Z,77.27
2022-11-17T13:51:23.761Z,77.89
2022-11-17T13:52:23.801Z,77.89
2022-11-17T13:53:24.090Z,79.21
2022-11-17T13:54:23.720Z,77.48
2022-11-17T13:55:23.828Z,77.68
2022-11-17T13:56:23.713Z,77.98
2022-11-17T13:57:23.712Z,77.27
2022-11-17T13:58:26.785Z,77.27
2022-11-17T13:59:23.688Z,78.09
2022-11-17T14:00:23.763Z,76.76
2022-11-17T14:01:23.676Z,77.27
2022-11-17T14:02:23.658Z,76.87
2022-11-17T14:03:25.097Z,77.58
2022-11-17T14:04:24.035Z,79.52
2022-11-17T14:05:23.619Z,80.23
2022-11-17T14:06:23.589Z,79.11
2022-11-17T14:07:23.622Z,79.41
2022-11-17T14:08:23.610Z,77.89
2022-11-17T14:09:23.577Z,77.78
2022-11-17T14:10:24.474Z,79.41
2022-11-17T14:11:23.536Z,78.30